Latest METARs, TAFs and NOTAMs for MMPR


---------------------------------------------------------------------------
	(OBSERVATIONS)
MMPR 211649Z 05003KT 15SM  SKC 31/21 A2987=METAR MMSP 211647Z
    00000KT 8SM  SKC 23/07 A3022 RMK HZY FU=
MMPR 211447Z 03006KT 15SM  SKC 26/23 A2987 RMK SLP111 52006 964=
---------------------------------------------------------------------------
	(TERMINAL AREA FORECAST)
MMPR 211618Z 2118/2224 34005KT P6SM SKC TX33/2121Z TN25/2212Z
    BECMG 2203/2204 09005KT
    FM221800 22010KT P6SM SKC=
---------------------------------------------------------------------------
	(NOTAMS)


MMPR A1837/17 CD OPR FREQ 121.9 MHZ. 1500/2200 DLY, 02 APR 15:00
    2017 UNTIL 28 OCT 22:00 2017. CREATED: 31 MAR 14:21 2017

MMPR A3797/17 CHANGED NOMENCLATURE OF THE FOLLOWING ACFT STANDS
    COMMERCIAL AVIATION APRON AS FOLLOWS: ACFT STAND NR-9 TO
    ACFT STAND NR-11 ACFT STAND NR-10 TO ACFT STAND NR-12 ACFT
    STAND NR-11 TO ACFT STAND NR-13 ACFT STAND NR-12 TO ACFT
    STAND NR-14 ACFT STAND NR-13 TO ACFT STAND NR-15 ACFT STAND
    NR-13A TO ACFT STAND NR-5A ACFT STAND NR-14 TO ACFT STAND
    NR-16 ACFT STAND NR-15 TO ACFT STAND NR-17 ACFT STAND NR-15A
    TO ACFT STAND NR-17A ACFT STAND NR-16 TO ACFT STAND NR-18
    ACFT STAND NR-16A TO ACFT STAND NR-18A ACFT STAND NR-17 TO
    ACFT STAND NR-19 ACFT STAND NR-18 TO ACFT STAND NR-20 ACFT
    STAND NR-18A TO ACFT STAND NR-20A. 01 JUL 05:00 2017 UNTIL
    PERM. CREATED: 01 JUL 00:56 2017

MMPR A3798/17 IN OPR ACFT STANDS NRS-9 TO 10 COMMERCIAL AVIATION
    APRON. 01 JUL 05:00 2017 UNTIL PERM. CREATED: 01 JUL 01:01
    2017

---------------------------------------------------------------------------